Time;durP1;ratioP1;P1;durP2;ratioP2;P2;SDS_P1;SDS_P2;PMS_P1;PMS_P2;Temp;Humidity;BMP_temperature;BMP_pressure;BME280_temperature;BME280_humidity;BME280_pressure;Samples;Min_cycle;Max_cycle;Signal;HPM_P1;HPM_P2
2023/05/03 00:02:01;;;;;;;5.40;2.50;;;;;;;13.75;44.11;95510.31;5001582;28;20223;-80
2023/05/03 00:04:27;;;;;;;4.67;2.40;;;;;;;13.89;44.33;95499.56;5018362;28;20246;-79
2023/05/03 00:06:52;;;;;;;4.73;2.30;;;;;;;13.64;44.63;95498.59;5025549;28;20237;-80
2023/05/03 00:09:18;;;;;;;5.43;2.47;;;;;;;13.76;44.71;95496.13;5032872;28;20240;-79
2023/05/03 00:11:43;;;;;;;7.33;2.50;;;;;;;13.85;44.76;95503.59;5020798;28;20222;-79
2023/05/03 00:14:09;;;;;;;6.27;2.50;;;;;;;13.87;45.35;95519.22;4998393;28;20684;-78
2023/05/03 00:16:34;;;;;;;6.67;2.60;;;;;;;13.84;44.50;95509.09;5013293;28;20223;-81
2023/05/03 00:19:00;;;;;;;5.63;2.50;;;;;;;13.55;44.89;95506.88;5018812;28;20230;-80
2023/05/03 00:21:25;;;;;;;6.67;2.47;;;;;;;13.62;45.52;95508.50;5032559;28;20226;-78
2023/05/03 00:23:51;;;;;;;3.77;2.60;;;;;;;13.68;44.71;95514.78;5032452;28;20229;-79
2023/05/03 00:26:17;;;;;;;4.60;2.50;;;;;;;13.62;44.97;95512.94;5020348;28;20222;-82
2023/05/03 00:28:42;;;;;;;4.70;2.50;;;;;;;13.73;44.97;95515.00;5026871;28;20241;-80
2023/05/03 00:31:08;;;;;;;6.73;2.90;;;;;;;13.83;44.92;95508.28;4997799;28;20226;-79
2023/05/03 00:33:34;;;;;;;7.93;2.60;;;;;;;13.72;44.35;95508.09;5014623;28;20241;-80
2023/05/03 00:36:06;;;;;;;5.50;2.57;;;;;;;13.81;44.59;95509.50;5012415;28;20812;-79
2023/05/03 00:38:32;;;;;;;4.97;2.50;;;;;;;13.72;45.04;95511.53;5035885;28;20769;-81
2023/05/03 00:40:57;;;;;;;5.77;2.70;;;;;;;13.65;45.41;95508.09;5010761;28;20227;-80
2023/05/03 00:43:23;;;;;;;4.13;2.37;;;;;;;13.69;44.95;95511.94;4993759;28;20231;-78
2023/05/03 00:45:49;;;;;;;6.00;2.40;;;;;;;13.72;44.59;95510.72;5005308;28;20229;-80
2023/05/03 00:48:16;;;;;;;5.77;2.50;;;;;;;13.77;44.81;95517.00;5013623;28;20226;-80
2023/05/03 00:50:41;;;;;;;4.90;2.60;;;;;;;13.74;45.54;95508.69;5034984;28;20242;-81
2023/05/03 00:53:07;;;;;;;5.30;2.60;;;;;;;13.78;44.95;95504.66;5041367;28;20225;-79
2023/05/03 00:55:32;;;;;;;5.07;2.43;;;;;;;13.71;44.67;95517.00;5030178;28;20229;-79
2023/05/03 00:57:58;;;;;;;7.93;2.53;;;;;;;13.73;44.93;95517.63;5021294;28;20226;-78
2023/05/03 01:00:23;;;;;;;6.13;2.60;;;;;;;13.62;45.33;95503.25;5021162;28;20223;-80
2023/05/03 01:02:49;;;;;;;7.70;2.80;;;;;;;13.68;45.52;95509.53;5007075;28;20222;-79
2023/05/03 01:05:15;;;;;;;5.97;2.63;;;;;;;13.68;45.32;95515.59;5013849;28;20227;-80
2023/05/03 01:07:55;;;;;;;4.60;2.67;;;;;;;13.52;45.65;95519.44;4997526;28;20233;-80
2023/05/03 01:10:46;;;;;;;5.10;2.40;;;;;;;13.66;45.28;95509.72;5039653;28;20230;-80
2023/05/03 01:13:25;;;;;;;4.63;2.63;;;;;;;13.61;45.46;95506.09;5017465;28;20241;-80
2023/05/03 01:15:59;;;;;;;6.03;2.70;;;;;;;13.69;45.41;95504.03;5041271;28;20237;-79
2023/05/03 01:18:33;;;;;;;9.30;3.40;;;;;;;13.63;45.83;95511.94;5018564;28;20245;-80
2023/05/03 01:20:59;;;;;;;5.30;2.60;;;;;;;13.48;45.51;95499.00;5036953;28;20246;-81
2023/05/03 01:23:58;;;;;;;4.20;2.90;;;;;;;13.49;46.21;95498.78;5005145;28;20234;-79
2023/05/03 01:26:26;;;;;;;6.33;2.53;;;;;;;13.31;46.12;95493.34;5034918;28;20237;-79
2023/05/03 01:28:51;;;;;;;4.60;2.43;;;;;;;13.31;46.36;95497.78;5022379;28;20234;-78
2023/05/03 01:31:23;;;;;;;5.50;2.80;;;;;;;13.32;46.56;95502.06;5015524;28;20234;-79
2023/05/03 01:33:56;;;;;;;4.97;2.93;;;;;;;13.31;45.83;95495.97;5000446;28;20237;-81
2023/05/03 01:36:23;;;;;;;6.10;2.80;;;;;;;13.29;46.67;95498.00;5017834;28;20218;-79
2023/05/03 01:38:49;;;;;;;6.27;2.70;;;;;;;13.25;46.92;95491.53;5020005;28;20230;-79
2023/05/03 01:41:14;;;;;;;6.93;2.70;;;;;;;13.25;46.72;95494.16;5017047;28;20222;-80
2023/05/03 01:43:40;;;;;;;6.07;2.80;;;;;;;13.35;46.75;95481.41;5016295;28;20234;-80
2023/05/03 01:46:05;;;;;;;6.17;2.70;;;;;;;13.25;47.14;95473.13;5017964;28;20227;-80
2023/05/03 01:48:31;;;;;;;5.67;2.70;;;;;;;12.97;47.01;95467.19;5018019;28;20223;-80
2023/05/03 01:50:56;;;;;;;6.20;2.80;;;;;;;13.00;48.14;95469.44;5016415;28;20241;-78
2023/05/03 01:53:22;;;;;;;4.63;2.60;;;;;;;12.98;47.88;95466.19;5025726;28;20221;-81
2023/05/03 01:55:47;;;;;;;6.07;2.67;;;;;;;12.96;47.44;95459.53;5037807;28;20225;-81
2023/05/03 01:58:13;;;;;;;7.07;2.90;;;;;;;12.91;47.53;95457.50;5026637;28;20222;-80
2023/05/03 02:00:38;;;;;;;6.93;3.10;;;;;;;13.00;47.78;95445.78;5017321;28;20230;-81
2023/05/03 02:03:04;;;;;;;6.30;2.83;;;;;;;12.77;48.13;95433.03;5018846;28;20233;-82
2023/05/03 02:05:29;;;;;;;4.90;2.70;;;;;;;12.74;48.33;95432.63;5018310;28;20227;-79
2023/05/03 02:07:55;;;;;;;5.67;3.10;;;;;;;12.78;48.32;95420.69;5019542;28;20226;-80
2023/05/03 02:10:20;;;;;;;5.87;3.20;;;;;;;12.82;48.24;95424.56;5038533;28;20254;-79
2023/05/03 02:12:45;;;;;;;6.73;2.90;;;;;;;12.91;47.70;95427.78;5022455;28;20231;-80
2023/05/03 02:15:11;;;;;;;5.87;3.10;;;;;;;12.98;47.93;95429.41;5030683;28;20238;-80
2023/05/03 02:17:37;;;;;;;8.93;3.10;;;;;;;12.90;48.19;95421.72;5040955;28;20226;-80
2023/05/03 02:20:12;;;;;;;4.77;2.60;;;;;;;12.85;48.65;95426.75;5019838;28;20237;-79
2023/05/03 02:22:38;;;;;;;5.07;2.77;;;;;;;12.93;48.52;95433.66;5035352;28;20228;-81
2023/05/03 02:25:04;;;;;;;7.90;3.00;;;;;;;12.74;49.15;95428.19;5041781;28;20826;-78
2023/05/03 02:27:29;;;;;;;6.37;2.80;;;;;;;12.87;49.26;95429.22;5021479;28;20251;-80
2023/05/03 02:29:55;;;;;;;5.80;2.67;;;;;;;13.01;48.47;95434.28;5035127;28;20229;-80
2023/05/03 02:32:20;;;;;;;7.33;2.70;;;;;;;12.78;48.37;95445.16;5023658;28;20214;-81
2023/05/03 02:34:46;;;;;;;5.07;2.80;;;;;;;12.47;49.48;95437.00;5010783;28;20321;-79
2023/05/03 02:37:12;;;;;;;5.37;2.90;;;;;;;12.51;49.32;95429.56;5036896;28;20234;-80
2023/05/03 02:39:37;;;;;;;5.57;2.73;;;;;;;12.60;49.42;95439.69;5042167;28;20238;-83
2023/05/03 02:42:03;;;;;;;5.27;2.60;;;;;;;12.63;49.59;95441.09;5034171;28;20253;-80
2023/05/03 02:44:28;;;;;;;5.47;2.70;;;;;;;12.77;49.07;95448.00;5029864;28;20237;-78
2023/05/03 02:46:53;;;;;;;8.00;2.93;;;;;;;12.76;49.02;95448.97;5022003;28;20235;-80
2023/05/03 02:49:19;;;;;;;8.00;2.93;;;;;;;12.69;48.70;95442.91;5033815;28;20233;-80
2023/05/03 02:51:44;;;;;;;3.53;2.70;;;;;;;12.67;49.32;95450.19;5014555;28;20222;-79
2023/05/03 02:54:10;;;;;;;4.60;2.50;;;;;;;12.64;49.12;95438.25;5035255;28;20240;-79
2023/05/03 02:56:37;;;;;;;5.73;2.90;;;;;;;12.61;49.57;95435.25;5019354;28;20221;-81
2023/05/03 02:59:02;;;;;;;6.70;2.80;;;;;;;12.61;49.72;95441.28;5020776;28;20227;-80
2023/05/03 03:01:28;;;;;;;6.60;2.80;;;;;;;12.40;49.61;95441.44;5034835;28;20726;-81
2023/05/03 03:03:54;;;;;;;4.07;2.70;;;;;;;12.48;50.17;95443.88;5027436;28;20315;-81
2023/05/03 03:06:20;;;;;;;5.27;2.73;;;;;;;12.32;50.89;95452.13;5024326;28;20237;-82
2023/05/03 03:08:45;;;;;;;4.17;2.80;;;;;;;12.29;50.54;95459.56;5019782;28;20234;-82
2023/05/03 03:11:11;;;;;;;4.97;2.80;;;;;;;12.25;50.49;95456.53;5032284;28;20234;-82
2023/05/03 03:13:38;;;;;;;6.63;2.90;;;;;;;12.25;50.63;95456.53;4997257;28;20235;-81
2023/05/03 03:16:08;;;;;;;5.87;2.90;;;;;;;12.39;50.42;95460.81;5015719;28;20364;-81
2023/05/03 03:18:34;;;;;;;5.40;2.70;;;;;;;12.56;50.34;95461.28;5024959;28;20231;-82
2023/05/03 03:21:02;;;;;;;3.03;2.47;;;;;;;12.43;50.59;95466.47;5019545;28;20237;-80
2023/05/03 03:23:28;;;;;;;7.87;3.00;;;;;;;12.45;51.27;95465.28;5011450;28;20222;-81
2023/05/03 03:25:54;;;;;;;7.17;2.83;;;;;;;12.50;51.03;95462.06;5013994;28;20219;-81
2023/05/03 03:28:19;;;;;;;5.37;2.67;;;;;;;12.45;51.26;95462.66;5019438;28;20366;-81
2023/05/03 03:30:45;;;;;;;5.57;2.77;;;;;;;12.70;50.87;95462.94;5012373;28;20254;-81
2023/05/03 03:33:10;;;;;;;6.53;2.90;;;;;;;12.71;50.85;95465.34;5038001;28;20230;-80
2023/05/03 03:35:36;;;;;;;5.43;2.80;;;;;;;12.69;50.78;95475.25;5017612;28;20229;-82
2023/05/03 03:38:02;;;;;;;7.07;3.07;;;;;;;12.43;51.41;95480.41;5039786;28;20260;-82
2023/05/03 03:40:27;;;;;;;7.43;2.90;;;;;;;12.61;51.25;95483.28;4994882;28;20235;-81
2023/05/03 03:42:53;;;;;;;5.97;3.10;;;;;;;12.50;51.76;95490.94;5034165;28;20240;-82
2023/05/03 03:45:18;;;;;;;7.23;2.90;;;;;;;12.68;51.45;95484.13;5014655;28;20254;-81
2023/05/03 03:47:44;;;;;;;4.13;2.80;;;;;;;12.86;51.04;95486.19;5016239;28;20232;-81
2023/05/03 03:50:09;;;;;;;6.37;3.10;;;;;;;12.85;51.03;95490.63;5033850;28;20222;-81
2023/05/03 03:52:35;;;;;;;4.77;2.67;;;;;;;12.83;50.55;95490.03;5030381;28;20276;-82
2023/05/03 03:55:00;;;;;;;6.47;2.87;;;;;;;12.73;50.66;95492.22;5044971;28;20234;-81
2023/05/03 03:57:29;;;;;;;8.37;3.20;;;;;;;12.84;50.18;95496.91;5012012;28;20223;-81
2023/05/03 03:59:55;;;;;;;6.90;2.87;;;;;;;12.65;50.81;95500.28;5030415;28;20233;-81
2023/05/03 04:02:20;;;;;;;9.73;3.10;;;;;;;12.53;51.28;95504.50;5021836;28;20226;-81
2023/05/03 04:04:46;;;;;;;4.87;2.73;;;;;;;12.55;51.47;95512.97;5029120;28;20234;-80
2023/05/03 04:07:11;;;;;;;6.03;2.80;;;;;;;12.58;51.30;95506.53;5015643;28;20227;-82
2023/05/03 04:09:37;;;;;;;6.07;2.90;;;;;;;12.81;51.66;95509.63;5019922;28;20234;-78
2023/05/03 04:12:03;;;;;;;4.80;2.80;;;;;;;12.64;51.42;95514.41;5043358;28;20627;-77
2023/05/03 04:14:28;;;;;;;6.80;3.00;;;;;;;12.64;51.00;95506.53;5017057;28;20237;-78
2023/05/03 04:16:53;;;;;;;6.90;3.00;;;;;;;12.88;50.70;95514.88;5011065;28;20222;-80
2023/05/03 04:19:20;;;;;;;5.33;3.17;;;;;;;12.80;50.72;95519.31;5034943;28;20230;-80
2023/05/03 04:21:46;;;;;;;6.73;2.87;;;;;;;12.66;50.98;95519.47;5015872;28;20209;-79
2023/05/03 04:24:14;;;;;;;6.20;2.90;;;;;;;12.76;50.98;95522.53;5041950;28;20242;-78
2023/05/03 04:26:40;;;;;;;6.20;2.80;;;;;;;12.71;51.62;95522.31;4998917;28;20230;-80
2023/05/03 04:29:05;;;;;;;6.27;2.90;;;;;;;12.79;50.85;95530.03;5042314;28;20226;-81
2023/05/03 04:31:31;;;;;;;7.40;3.00;;;;;;;12.76;50.88;95533.03;5015562;28;20226;-80
2023/05/03 04:33:56;;;;;;;7.50;3.10;;;;;;;12.71;51.54;95538.06;5013249;28;20234;-81
2023/05/03 04:36:24;;;;;;;7.60;3.00;;;;;;;12.78;52.55;95538.91;5021860;28;20234;-80
2023/05/03 04:38:50;;;;;;;7.37;3.10;;;;;;;12.76;55.19;95546.16;5026777;28;20234;-81
2023/05/03 04:41:16;;;;;;;7.33;3.23;;;;;;;12.67;56.00;95557.88;5023672;28;20727;-81
2023/05/03 04:43:42;;;;;;;6.47;3.00;;;;;;;12.62;56.83;95552.38;5036492;28;20292;-82
2023/05/03 04:46:08;;;;;;;5.80;3.10;;;;;;;12.59;57.89;95555.41;5016896;28;20233;-81
2023/05/03 04:48:34;;;;;;;7.60;3.20;;;;;;;12.54;57.22;95566.50;5017201;28;20217;-81
2023/05/03 04:51:00;;;;;;;9.40;3.43;;;;;;;12.53;59.93;95572.78;5033812;28;20241;-82
2023/05/03 04:53:25;;;;;;;6.27;3.17;;;;;;;12.79;57.72;95577.31;5000598;28;20227;-81
2023/05/03 04:55:51;;;;;;;10.10;3.30;;;;;;;12.70;59.32;95584.56;5018358;28;20231;-83
2023/05/03 04:58:16;;;;;;;5.37;3.40;;;;;;;12.72;59.68;95582.53;5002586;28;20229;-82
2023/05/03 05:00:42;;;;;;;6.93;3.50;;;;;;;12.69;60.47;95590.00;5026312;28;20243;-81
2023/05/03 05:03:08;;;;;;;7.10;3.60;;;;;;;12.34;59.48;95593.66;5047629;28;20693;-81
2023/05/03 05:05:34;;;;;;;8.30;3.70;;;;;;;12.51;60.53;95597.59;5032904;28;20222;-82
2023/05/03 05:07:59;;;;;;;7.13;3.37;;;;;;;12.37;61.61;95607.19;5035497;28;20230;-83
2023/05/03 05:10:25;;;;;;;8.00;3.80;;;;;;;12.21;60.66;95606.69;5030357;28;20238;-80
2023/05/03 05:12:50;;;;;;;6.87;3.77;;;;;;;12.20;62.70;95602.47;5024270;28;20231;-82
2023/05/03 05:15:16;;;;;;;7.57;3.63;;;;;;;12.26;65.03;95604.31;5006457;28;20237;-84
2023/05/03 05:17:41;;;;;;;5.27;3.27;;;;;;;12.25;65.72;95598.28;5028860;28;20231;-83
2023/05/03 05:20:11;;;;;;;6.13;3.70;;;;;;;12.36;65.53;95608.22;5022061;28;20285;-83
2023/05/03 05:22:37;;;;;;;9.63;3.53;;;;;;;12.28;64.77;95607.53;5026270;28;20241;-82
2023/05/03 05:25:03;;;;;;;7.97;3.60;;;;;;;12.02;63.93;95609.00;5046021;28;20226;-82
2023/05/03 05:27:28;;;;;;;5.90;3.57;;;;;;;12.18;64.75;95611.34;5010362;28;20237;-82
2023/05/03 05:29:53;;;;;;;8.60;3.47;;;;;;;12.36;66.81;95621.34;5031592;28;20256;-82
2023/05/03 05:32:19;;;;;;;9.87;3.53;;;;;;;12.34;64.52;95622.53;5034889;28;20262;-82
2023/05/03 05:34:50;;;;;;;7.33;3.50;;;;;;;12.13;65.33;95607.69;5022238;28;20230;-82
2023/05/03 05:37:15;;;;;;;7.97;3.93;;;;;;;12.41;63.17;95615.50;5031206;28;20223;-82
2023/05/03 05:39:41;;;;;;;8.90;3.67;;;;;;;12.37;62.30;95622.16;5017558;28;20226;-83
2023/05/03 05:42:06;;;;;;;7.27;3.60;;;;;;;12.58;60.82;95616.81;5013029;28;20231;-83
2023/05/03 05:44:32;;;;;;;8.23;3.90;;;;;;;12.63;60.40;95606.53;5037770;28;20241;-84
2023/05/03 05:46:57;;;;;;;7.97;3.83;;;;;;;12.81;62.16;95604.19;5027443;28;20221;-82
2023/05/03 05:49:22;;;;;;;7.87;3.70;;;;;;;13.06;59.88;95605.34;5024855;28;20218;-84
2023/05/03 05:51:48;;;;;;;9.70;3.70;;;;;;;13.19;59.60;95604.53;5037343;28;20251;-83
2023/05/03 05:54:13;;;;;;;8.90;3.50;;;;;;;13.05;60.95;95600.22;5037156;28;20708;-83
2023/05/03 05:56:39;;;;;;;8.73;3.83;;;;;;;13.02;60.61;95605.88;5024842;28;20230;-84
2023/05/03 05:59:04;;;;;;;8.43;4.00;;;;;;;12.97;61.75;95600.41;5026763;28;20226;-83
2023/05/03 06:01:31;;;;;;;8.10;3.87;;;;;;;12.96;61.89;95594.34;5041212;28;20255;-82
2023/05/03 06:03:56;;;;;;;8.10;3.67;;;;;;;12.80;60.85;95605.22;5031354;28;20302;-83
2023/05/03 06:06:22;;;;;;;10.13;4.00;;;;;;;12.82;60.66;95598.72;5026660;28;20235;-85
2023/05/03 06:08:50;;;;;;;10.13;3.60;;;;;;;12.72;63.35;95594.84;5046529;28;20230;-84
2023/05/03 06:11:16;;;;;;;7.27;3.63;;;;;;;12.64;61.87;95590.59;5034324;28;20219;-83
2023/05/03 06:13:42;;;;;;;9.07;4.27;;;;;;;12.71;63.04;95587.97;5030109;28;20230;-83
2023/05/03 06:16:08;;;;;;;7.10;3.60;;;;;;;12.77;64.30;95590.66;5046584;28;20222;-82
2023/05/03 06:18:33;;;;;;;10.33;4.27;;;;;;;12.76;66.12;95593.44;5005140;28;20269;-83
2023/05/03 06:20:59;;;;;;;10.53;4.00;;;;;;;12.97;63.78;95590.69;5010075;28;20235;-81
2023/05/03 06:23:26;;;;;;;12.03;4.17;;;;;;;13.01;63.38;95596.38;5045768;28;20223;-82
2023/05/03 06:25:52;;;;;;;8.03;3.93;;;;;;;12.92;64.28;95598.34;5036220;28;20785;-84
2023/05/03 06:28:17;;;;;;;8.77;4.10;;;;;;;12.87;63.85;95595.53;5018669;28;20230;-77
2023/05/03 06:30:50;;;;;;;8.23;4.30;;;;;;;13.09;65.00;95601.47;5028623;28;20237;-79
2023/05/03 06:33:16;;;;;;;9.53;4.07;;;;;;;13.10;62.50;95595.22;5008176;28;20256;-79
2023/05/03 06:35:41;;;;;;;8.30;4.13;;;;;;;13.02;62.83;95590.91;5018882;28;20234;-79
2023/05/03 06:38:07;;;;;;;5.23;3.73;;;;;;;12.83;63.02;95592.47;5000456;28;20263;-79
2023/05/03 06:40:34;;;;;;;14.20;4.33;;;;;;;13.00;60.82;95589.50;5023208;28;20232;-79
2023/05/03 06:42:59;;;;;;;6.50;3.63;;;;;;;12.81;60.93;95588.44;4990990;28;20222;-78
2023/05/03 06:45:25;;;;;;;8.73;3.90;;;;;;;12.98;61.23;95581.00;5019346;28;20666;-78
2023/05/03 06:47:50;;;;;;;7.47;3.83;;;;;;;12.95;58.66;95581.38;5030027;28;20242;-76
2023/05/03 06:50:16;;;;;;;5.97;3.40;;;;;;;12.90;59.24;95576.72;5008637;28;20238;-78
2023/05/03 06:52:42;;;;;;;8.30;3.57;;;;;;;13.07;59.26;95574.59;5037643;28;20234;-78
2023/05/03 06:55:08;;;;;;;9.80;3.90;;;;;;;13.04;59.79;95561.84;5019338;28;20237;-78
2023/05/03 06:57:33;;;;;;;7.87;3.83;;;;;;;13.00;58.99;95564.03;5019881;28;20596;-78
2023/05/03 06:59:58;;;;;;;9.37;3.70;;;;;;;13.10;58.43;95553.16;5012401;28;20230;-79
2023/05/03 07:02:25;;;;;;;9.13;3.83;;;;;;;13.00;58.16;95553.53;5007923;28;20237;-77
2023/05/03 07:04:50;;;;;;;13.87;4.03;;;;;;;12.89;58.59;95546.22;5017903;28;20223;-79
2023/05/03 07:07:16;;;;;;;57.77;8.60;;;;;;;13.02;59.29;95545.44;5023305;28;20329;-79
2023/05/03 07:09:42;;;;;;;49.43;6.13;;;;;;;13.12;58.42;95548.53;5035500;28;20269;-81
2023/05/03 07:12:07;;;;;;;89.77;8.07;;;;;;;13.23;58.89;95543.47;5029647;28;20648;-79
2023/05/03 07:14:33;;;;;;;26.90;5.17;;;;;;;13.32;59.96;95555.44;5014939;28;20314;-78
2023/05/03 07:16:58;;;;;;;9.50;3.67;;;;;;;13.19;58.82;95558.03;5004118;28;20218;-79
2023/05/03 07:19:24;;;;;;;8.50;3.83;;;;;;;13.18;58.82;95572.19;5027694;28;20253;-75
2023/05/03 07:21:50;;;;;;;11.67;4.10;;;;;;;13.27;59.27;95560.50;5009454;28;20227;-79
2023/05/03 07:24:15;;;;;;;6.27;3.53;;;;;;;12.97;60.05;95561.78;4991857;28;20233;-79
2023/05/03 07:26:41;;;;;;;6.47;3.63;;;;;;;12.99;60.04;95551.09;5015001;28;20218;-80
2023/05/03 07:29:06;;;;;;;7.07;3.80;;;;;;;12.91;60.91;95544.22;5030831;28;20238;-78
2023/05/03 07:31:32;;;;;;;10.73;3.80;;;;;;;13.09;60.19;95554.97;5022181;28;20226;-79
2023/05/03 07:33:57;;;;;;;7.83;3.60;;;;;;;12.83;61.31;95560.13;5014166;28;20241;-78
2023/05/03 07:36:23;;;;;;;7.20;3.87;;;;;;;12.93;61.05;95552.69;5011772;28;20226;-80
2023/05/03 07:38:48;;;;;;;6.97;3.77;;;;;;;13.18;60.40;95564.28;5014857;28;20301;-78
2023/05/03 07:41:14;;;;;;;9.43;3.70;;;;;;;12.88;62.14;95556.91;5038629;28;20222;-79
2023/05/03 07:43:39;;;;;;;8.23;3.37;;;;;;;12.79;61.27;95545.78;5024731;28;20246;-80
2023/05/03 07:46:05;;;;;;;9.57;3.90;;;;;;;12.62;62.05;95532.19;5017570;28;20249;-81
2023/05/03 07:48:30;;;;;;;16.53;4.13;;;;;;;12.78;63.42;95538.91;5030849;28;20223;-78
2023/05/03 07:50:56;;;;;;;262.20;12.63;;;;;;;12.83;61.83;95547.00;5032723;28;20222;-79
2023/05/03 07:53:21;;;;;;;9.80;4.00;;;;;;;12.87;62.89;95540.38;5031864;28;20219;-79
2023/05/03 07:55:47;;;;;;;12.80;3.90;;;;;;;13.01;62.21;95551.72;5030367;28;20230;-78
2023/05/03 07:58:13;;;;;;;9.27;3.60;;;;;;;12.99;61.99;95559.78;5027178;28;20226;-80
2023/05/03 08:00:38;;;;;;;11.47;3.93;;;;;;;12.98;62.67;95552.91;5019813;28;20233;-80
2023/05/03 08:03:05;;;;;;;9.50;3.70;;;;;;;13.00;62.76;95550.88;5027022;28;20231;-79
2023/05/03 08:05:30;;;;;;;7.67;4.00;;;;;;;12.97;62.66;95553.91;5034049;28;20236;-80
2023/05/03 08:07:56;;;;;;;6.63;3.80;;;;;;;12.92;63.25;95569.44;5016511;28;20778;-79
2023/05/03 08:10:21;;;;;;;6.63;3.83;;;;;;;13.33;62.77;95566.75;5027806;28;20243;-79
2023/05/03 08:12:47;;;;;;;7.43;3.60;;;;;;;13.23;62.57;95563.72;5001455;28;20218;-79
2023/05/03 08:15:12;;;;;;;10.00;4.23;;;;;;;13.14;62.25;95555.19;5032280;28;20241;-81
2023/05/03 08:17:42;;;;;;;6.30;3.63;;;;;;;13.30;61.97;95567.94;5026751;28;20835;-80
2023/05/03 08:20:08;;;;;;;7.10;3.77;;;;;;;13.44;62.61;95564.38;5013711;28;20227;-78
2023/05/03 08:22:35;;;;;;;7.93;3.87;;;;;;;14.04;61.91;95570.41;5038572;28;20228;-78
2023/05/03 08:25:03;;;;;;;8.53;4.03;;;;;;;14.51;59.18;95562.22;5008883;28;20231;-78
2023/05/03 08:27:29;;;;;;;8.13;3.97;;;;;;;14.47;59.63;95557.59;5015051;28;20234;-80
2023/05/03 08:29:54;;;;;;;7.53;3.77;;;;;;;14.48;58.77;95565.28;5024619;28;20233;-78
2023/05/03 08:32:20;;;;;;;9.93;4.07;;;;;;;14.82;57.95;95562.31;5003898;28;20226;-79
2023/05/03 08:34:45;;;;;;;7.27;3.90;;;;;;;14.74;57.75;95570.44;5020838;28;20297;-80
2023/05/03 08:37:11;;;;;;;6.40;3.80;;;;;;;15.14;57.31;95576.31;5031717;28;20281;-81
2023/05/03 08:39:36;;;;;;;7.40;3.63;;;;;;;15.29;57.18;95579.50;5015899;28;20241;-78
2023/05/03 08:42:08;;;;;;;7.80;3.87;;;;;;;15.75;56.18;95578.41;5028127;28;20677;-80
2023/05/03 08:44:38;;;;;;;9.23;3.80;;;;;;;15.95;53.65;95564.00;5020868;28;20245;-79
2023/05/03 08:47:05;;;;;;;9.73;3.67;;;;;;;16.32;54.05;95553.50;5011915;28;20227;-78
2023/05/03 08:49:31;;;;;;;6.93;4.27;;;;;;;15.82;54.12;95558.03;5025934;28;20233;-78
2023/05/03 08:51:57;;;;;;;8.07;4.07;;;;;;;15.86;54.81;95559.22;5033551;28;20719;-78
2023/05/03 08:54:23;;;;;;;10.57;4.40;;;;;;;16.66;53.74;95559.06;5012377;28;20257;-78
2023/05/03 08:56:48;;;;;;;5.53;3.63;;;;;;;16.01;53.53;95572.91;5010245;28;20237;-80
2023/05/03 08:59:16;;;;;;;8.97;3.60;;;;;;;16.13;54.39;95569.34;5014723;28;20226;-79
2023/05/03 09:01:41;;;;;;;10.13;3.93;;;;;;;15.85;55.43;95568.16;5012651;28;20230;-79
2023/05/03 09:04:07;;;;;;;10.50;4.37;;;;;;;15.42;55.74;95568.06;4994318;28;20234;-79
2023/05/03 09:06:33;;;;;;;7.67;4.00;;;;;;;15.23;56.27;95574.28;5014550;28;20230;-79
2023/05/03 09:08:58;;;;;;;13.10;4.70;;;;;;;15.41;57.73;95572.53;5017932;28;20250;-78
2023/05/03 09:11:29;;;;;;;10.73;4.40;;;;;;;15.59;56.77;95573.66;5031832;28;20219;-75
2023/05/03 09:14:13;;;;;;;5.83;3.83;;;;;;;15.71;57.28;95558.75;5002158;28;20242;-78
2023/05/03 09:16:39;;;;;;;7.67;4.07;;;;;;;15.99;55.48;95553.84;5023456;28;20261;-79
2023/05/03 09:19:08;;;;;;;8.27;3.73;;;;;;;16.19;55.06;95551.81;5025920;28;20237;-77
2023/05/03 09:21:36;;;;;;;7.50;3.80;;;;;;;16.45;54.37;95540.97;5007831;28;20599;-79
2023/05/03 09:24:03;;;;;;;5.50;3.80;;;;;;;16.24;54.41;95544.03;5015349;28;20223;-79
2023/05/03 09:26:34;;;;;;;8.57;4.27;;;;;;;16.79;53.88;95544.84;5014738;28;20257;-79
2023/05/03 09:29:03;;;;;;;8.00;3.90;;;;;;;17.30;52.54;95537.25;5030170;28;20708;-79
2023/05/03 09:31:29;;;;;;;7.50;4.10;;;;;;;17.17;52.93;95526.84;5010613;28;20234;-79
2023/05/03 09:33:55;;;;;;;7.83;4.73;;;;;;;17.29;51.80;95538.28;4993328;28;20254;-79
2023/05/03 09:36:21;;;;;;;7.50;4.50;;;;;;;17.48;51.93;95529.22;5040360;28;20231;-81
2023/05/03 09:38:46;;;;;;;7.90;4.53;;;;;;;17.44;52.46;95521.97;5031548;28;20226;-79
2023/05/03 09:41:12;;;;;;;6.60;4.70;;;;;;;17.86;51.24;95520.94;5031226;28;20751;-80
2023/05/03 09:43:51;;;;;;;6.77;4.30;;;;;;;17.11;51.36;95514.53;4999794;28;20233;-81
2023/05/03 09:46:16;;;;;;;7.07;3.80;;;;;;;16.81;52.85;95503.94;5014879;28;20229;-79
2023/05/03 09:48:42;;;;;;;5.40;3.73;;;;;;;17.19;53.28;95506.28;5013957;28;20230;-80
2023/05/03 09:51:08;;;;;;;6.03;4.10;;;;;;;17.93;51.50;95511.03;5021334;28;20224;-81
2023/05/03 09:53:35;;;;;;;8.23;3.80;;;;;;;18.09;50.64;95506.88;5002525;28;20268;-79
2023/05/03 09:56:05;;;;;;;7.80;4.10;;;;;;;18.34;49.77;95506.63;5040550;28;20250;-79
2023/05/03 09:58:30;;;;;;;6.43;4.10;;;;;;;18.59;49.18;95507.97;5035644;28;20254;-79
2023/05/03 10:00:56;;;;;;;5.90;4.37;;;;;;;18.59;48.06;95510.63;5033399;28;20227;-81
2023/05/03 10:03:25;;;;;;;6.13;3.90;;;;;;;19.10;49.05;95507.13;5041093;28;20226;-79
2023/05/03 10:05:50;;;;;;;6.10;4.20;;;;;;;18.55;47.94;95500.72;5015953;28;20230;-79
2023/05/03 10:08:26;;;;;;;6.03;3.93;;;;;;;18.00;49.32;95500.31;5020730;28;20233;-79
2023/05/03 10:10:53;;;;;;;5.90;4.03;;;;;;;18.22;50.06;95489.94;5032027;28;20276;-79
2023/05/03 10:13:20;;;;;;;12.73;4.13;;;;;;;18.39;50.46;95502.22;5024841;28;20238;-79
2023/05/03 10:15:47;;;;;;;5.77;4.20;;;;;;;18.06;50.16;95502.03;5003929;28;20237;-79
2023/05/03 10:18:12;;;;;;;6.83;3.80;;;;;;;17.71;52.12;95501.22;5022843;28;20226;-79
2023/05/03 10:20:39;;;;;;;7.87;4.47;;;;;;;18.12;51.06;95501.13;5010662;28;20639;-80
2023/05/03 10:23:10;;;;;;;6.77;4.00;;;;;;;18.30;49.99;95487.72;5015118;28;20237;-78
2023/05/03 10:25:36;;;;;;;7.47;3.97;;;;;;;18.67;49.33;95477.63;5033377;28;20256;-80
2023/05/03 10:28:05;;;;;;;7.30;3.80;;;;;;;18.70;50.12;95470.00;5017480;28;20250;-79
2023/05/03 10:30:39;;;;;;;7.17;3.93;;;;;;;18.55;51.12;95468.91;5017949;28;20239;-79
2023/05/03 10:33:11;;;;;;;7.63;3.60;;;;;;;18.09;51.29;95451.22;5031758;28;20227;-79
2023/05/03 10:35:48;;;;;;;6.10;4.00;;;;;;;18.08;51.43;95454.91;5032440;28;20242;-78
2023/05/03 10:38:23;;;;;;;7.20;3.90;;;;;;;18.40;51.36;95453.47;5005057;28;20316;-80
2023/05/03 10:40:49;;;;;;;5.77;3.80;;;;;;;18.25;52.03;95449.69;4999425;28;20234;-81
2023/05/03 10:43:32;;;;;;;5.47;3.63;;;;;;;18.55;50.73;95448.50;5029927;28;20229;-79
2023/05/03 10:46:08;;;;;;;6.50;3.60;;;;;;;18.34;50.13;95443.78;5030306;28;20229;-78
2023/05/03 10:48:34;;;;;;;6.30;3.40;;;;;;;18.19;50.75;95451.47;5022061;28;20249;-79
2023/05/03 10:51:37;;;;;;;6.27;3.33;;;;;;;18.23;50.10;95446.47;5029393;28;20241;-78
2023/05/03 10:54:03;;;;;;;4.60;3.20;;;;;;;18.05;51.23;95444.81;5017807;28;20234;-78
2023/05/03 10:56:28;;;;;;;8.13;3.40;;;;;;;17.74;51.44;95445.97;5013666;28;20219;-81
2023/05/03 10:58:57;;;;;;;7.07;3.33;;;;;;;18.00;53.05;95457.94;5033775;28;20229;-79
2023/05/03 11:01:23;;;;;;;7.40;3.60;;;;;;;17.88;51.59;95451.84;5016622;28;20223;-78
2023/05/03 11:04:06;;;;;;;5.17;3.43;;;;;;;17.95;51.21;95452.53;5018341;28;20241;-78
2023/05/03 11:06:36;;;;;;;7.07;3.60;;;;;;;17.94;51.95;95448.25;5015647;28;20279;-78
2023/05/03 11:09:05;;;;;;;6.73;3.60;;;;;;;17.88;51.82;95446.53;4998516;28;20260;-79
2023/05/03 11:11:31;;;;;;;12.53;3.67;;;;;;;17.86;53.24;95436.19;5021242;28;20257;-80
2023/05/03 11:13:57;;;;;;;8.33;3.77;;;;;;;18.30;52.49;95434.72;5006653;28;20227;-81
2023/05/03 11:16:22;;;;;;;10.23;3.70;;;;;;;18.57;52.83;95433.16;5022530;28;20218;-79
2023/05/03 11:18:48;;;;;;;9.67;3.60;;;;;;;18.68;51.84;95429.66;5016307;28;20222;-81
2023/05/03 11:21:14;;;;;;;8.53;3.67;;;;;;;18.42;52.00;95432.03;5017107;28;20809;-79
2023/05/03 11:23:40;;;;;;;6.70;3.50;;;;;;;18.01;53.57;95430.38;5031603;28;20958;-79
2023/05/03 11:26:06;;;;;;;6.70;3.57;;;;;;;18.07;53.12;95432.94;4996012;28;20222;-78
2023/05/03 11:28:31;;;;;;;10.10;3.53;;;;;;;18.15;53.73;95421.94;5034723;28;20239;-79
2023/05/03 11:30:57;;;;;;;8.17;3.70;;;;;;;18.08;52.78;95420.47;5024070;28;20235;-81